Time;durP1;ratioP1;P1;durP2;ratioP2;P2;SDS_P1;SDS_P2;PMS_P1;PMS_P2;Temp;Humidity;BMP_temperature;BMP_pressure;BME280_temperature;BME280_humidity;BME280_pressure;Samples;Min_cycle;Max_cycle;Signal;HPM_P1;HPM_P2
2020/12/22 00:01:10;;;;;;;15.47;3.17;;;14.20;99.90;;;;;;5065666;28;20238;-84
2020/12/22 00:03:37;;;;;;;15.53;3.00;;;14.20;99.90;;;;;;5055058;28;20235;-84
2020/12/22 00:06:04;;;;;;;19.97;3.70;;;14.20;99.90;;;;;;5056870;28;20282;-84
2020/12/22 00:08:30;;;;;;;18.50;3.23;;;14.20;99.90;;;;;;5065122;28;20245;-84
2020/12/22 00:10:57;;;;;;;20.17;3.07;;;14.20;99.90;;;;;;5075209;28;20238;-83
2020/12/22 00:13:23;;;;;;;21.00;3.20;;;14.20;99.90;;;;;;5073983;28;20206;-83
2020/12/22 00:15:50;;;;;;;21.17;2.90;;;14.20;99.90;;;;;;5074142;28;20241;-83
2020/12/22 00:18:17;;;;;;;21.70;4.03;;;14.20;99.90;;;;;;5070036;28;20238;-84
2020/12/22 00:20:45;;;;;;;22.50;4.17;;;14.20;99.90;;;;;;5058845;28;20217;-84
2020/12/22 00:23:11;;;;;;;15.97;3.27;;;14.20;99.90;;;;;;5074557;28;20227;-84
2020/12/22 00:25:42;;;;;;;16.93;3.27;;;14.20;99.90;;;;;;5073933;28;20726;-83
2020/12/22 00:28:09;;;;;;;17.37;3.27;;;14.20;99.90;;;;;;5061786;28;20265;-84
2020/12/22 00:30:36;;;;;;;22.27;4.00;;;14.10;99.90;;;;;;5065948;28;20219;-84
2020/12/22 00:33:03;;;;;;;17.20;3.67;;;14.10;99.90;;;;;;5073989;28;20245;-83
2020/12/22 00:35:29;;;;;;;12.37;2.93;;;14.10;99.90;;;;;;5073999;28;20291;-83
2020/12/22 00:37:57;;;;;;;19.67;3.60;;;14.10;99.90;;;;;;5070782;28;20282;-82
2020/12/22 00:40:24;;;;;;;15.83;3.20;;;14.10;99.90;;;;;;5067432;28;20274;-83
2020/12/22 00:42:50;;;;;;;21.90;3.23;;;14.10;99.90;;;;;;5072424;28;20203;-83
2020/12/22 00:45:17;;;;;;;14.63;2.77;;;14.10;99.90;;;;;;5058326;28;20234;-82
2020/12/22 00:47:43;;;;;;;14.40;2.73;;;14.10;99.90;;;;;;5074155;28;20241;-83
2020/12/22 00:50:10;;;;;;;21.03;2.93;;;14.10;99.90;;;;;;5073848;28;20281;-83
2020/12/22 00:52:37;;;;;;;17.10;2.70;;;14.10;99.90;;;;;;5073885;28;20215;-83
2020/12/22 00:55:04;;;;;;;14.33;2.90;;;14.10;99.90;;;;;;5072662;28;20234;-83
2020/12/22 00:57:31;;;;;;;17.60;2.97;;;14.10;99.90;;;;;;5066855;28;20234;-83
2020/12/22 00:59:57;;;;;;;14.83;2.53;;;14.10;99.90;;;;;;5073574;28;20254;-83
2020/12/22 01:02:24;;;;;;;14.80;2.50;;;14.10;99.90;;;;;;5072172;28;20230;-83
2020/12/22 01:04:50;;;;;;;10.20;2.57;;;14.00;99.90;;;;;;5072847;28;20298;-83
2020/12/22 01:07:17;;;;;;;12.97;2.37;;;14.10;99.90;;;;;;5072289;28;20234;-83
2020/12/22 01:09:45;;;;;;;7.97;2.30;;;14.10;99.90;;;;;;5066740;28;20223;-83
2020/12/22 01:12:12;;;;;;;10.80;2.30;;;14.10;99.90;;;;;;5053212;28;20286;-83
2020/12/22 01:14:38;;;;;;;12.87;2.30;;;14.10;99.90;;;;;;5053639;28;20231;-83
2020/12/22 01:17:06;;;;;;;10.10;1.80;;;14.10;99.90;;;;;;5053247;28;20678;-83
2020/12/22 01:19:32;;;;;;;10.80;1.97;;;14.00;99.90;;;;;;5052948;28;20312;-83
2020/12/22 01:21:59;;;;;;;8.47;1.90;;;14.10;99.90;;;;;;5054449;28;20246;-83
2020/12/22 01:24:25;;;;;;;9.30;1.57;;;14.00;99.90;;;;;;5073009;28;20282;-83
2020/12/22 01:26:53;;;;;;;8.10;1.43;;;14.10;99.90;;;;;;5071911;28;20299;-83
2020/12/22 01:29:21;;;;;;;14.23;2.10;;;14.10;99.90;;;;;;5066542;28;20618;-83
2020/12/22 01:31:48;;;;;;;12.20;2.03;;;14.10;99.90;;;;;;5068033;28;20277;-83
2020/12/22 01:34:15;;;;;;;6.67;1.60;;;14.10;99.90;;;;;;5058739;28;20721;-83
2020/12/22 01:36:41;;;;;;;10.07;1.70;;;14.10;99.90;;;;;;5056180;28;20280;-83
2020/12/22 01:39:08;;;;;;;9.90;2.10;;;14.10;99.90;;;;;;5072440;28;20247;-83
2020/12/22 01:41:35;;;;;;;9.37;1.60;;;14.10;99.90;;;;;;5072550;28;20592;-83
2020/12/22 01:44:05;;;;;;;9.63;1.73;;;14.10;99.90;;;;;;5071804;28;20230;-83
2020/12/22 01:46:35;;;;;;;9.67;1.40;;;14.10;99.90;;;;;;5072758;28;20227;-83
2020/12/22 01:49:04;;;;;;;7.10;1.73;;;14.10;99.90;;;;;;5057701;28;20315;-83
2020/12/22 01:51:31;;;;;;;6.73;1.30;;;14.10;99.90;;;;;;5065590;28;20241;-84
2020/12/22 01:53:57;;;;;;;6.73;1.43;;;14.10;99.90;;;;;;5072490;28;20203;-83
2020/12/22 01:56:24;;;;;;;6.70;1.43;;;14.10;99.90;;;;;;5066564;28;20207;-83
2020/12/22 01:58:51;;;;;;;6.87;1.40;;;14.10;99.90;;;;;;5068000;28;20238;-84
2020/12/22 02:01:18;;;;;;;7.33;1.33;;;14.10;99.90;;;;;;5071731;28;20265;-84
2020/12/22 02:03:45;;;;;;;8.13;1.30;;;14.10;99.90;;;;;;5068430;28;20244;-83
2020/12/22 02:06:12;;;;;;;7.53;1.17;;;14.10;99.90;;;;;;5062617;28;20250;-84
2020/12/22 02:08:39;;;;;;;6.53;1.30;;;14.10;99.90;;;;;;5052374;28;20227;-84
2020/12/22 02:11:05;;;;;;;7.60;1.67;;;14.10;99.90;;;;;;5063547;28;20223;-84
2020/12/22 02:13:31;;;;;;;6.33;1.20;;;14.00;99.90;;;;;;5071467;28;20710;-84
2020/12/22 02:15:58;;;;;;;5.33;1.40;;;14.10;99.90;;;;;;5071889;28;20234;-84
2020/12/22 02:18:25;;;;;;;9.07;1.50;;;14.00;99.90;;;;;;5071873;28;20641;-84
2020/12/22 02:20:53;;;;;;;7.53;1.30;;;14.10;99.90;;;;;;5066855;28;20220;-84
2020/12/22 02:23:20;;;;;;;6.23;1.20;;;14.00;99.90;;;;;;5058620;28;20221;-83
2020/12/22 02:25:48;;;;;;;6.73;1.50;;;14.10;99.90;;;;;;5057076;28;20222;-83
2020/12/22 02:28:17;;;;;;;5.73;1.27;;;14.00;99.90;;;;;;5059194;28;20287;-83
2020/12/22 02:30:44;;;;;;;6.27;1.13;;;14.00;99.90;;;;;;5051215;28;20190;-83
2020/12/22 02:33:11;;;;;;;6.67;1.20;;;14.00;99.90;;;;;;5072038;28;20249;-83
2020/12/22 02:35:38;;;;;;;5.93;1.27;;;14.00;99.90;;;;;;5057990;28;20288;-83
2020/12/22 02:38:05;;;;;;;6.70;1.20;;;14.00;99.90;;;;;;5064111;28;20291;-83
2020/12/22 02:40:32;;;;;;;6.53;1.30;;;14.00;99.90;;;;;;5067014;28;20305;-84
2020/12/22 02:43:08;;;;;;;9.90;1.37;;;14.00;99.90;;;;;;5068853;28;20230;-83
2020/12/22 02:45:35;;;;;;;6.33;1.50;;;14.00;99.90;;;;;;5034668;28;20199;-83
2020/12/22 02:48:01;;;;;;;6.80;1.20;;;14.10;99.90;;;;;;5051917;28;20232;-83
2020/12/22 02:50:28;;;;;;;5.97;1.00;;;14.00;99.90;;;;;;5060242;28;20230;-83
2020/12/22 02:52:54;;;;;;;9.07;1.50;;;14.00;99.90;;;;;;5071661;28;20380;-83
2020/12/22 02:55:21;;;;;;;9.83;1.40;;;14.00;99.90;;;;;;5071866;28;20203;-83
2020/12/22 02:57:48;;;;;;;5.10;1.23;;;14.00;99.90;;;;;;5065093;28;20264;-84
2020/12/22 03:00:15;;;;;;;8.17;1.47;;;14.00;99.90;;;;;;5065358;28;20306;-84
2020/12/22 03:02:41;;;;;;;10.10;1.50;;;14.00;99.90;;;;;;5071388;28;20295;-83
2020/12/22 03:05:08;;;;;;;5.27;1.70;;;14.00;99.90;;;;;;5067119;28;20235;-83
2020/12/22 03:07:34;;;;;;;8.47;1.30;;;14.00;99.90;;;;;;5051817;28;20231;-83
2020/12/22 03:10:00;;;;;;;8.17;1.60;;;14.00;99.90;;;;;;5051933;28;20227;-83
2020/12/22 03:12:27;;;;;;;7.17;1.40;;;13.90;99.90;;;;;;5052515;28;20223;-83
2020/12/22 03:14:54;;;;;;;7.43;1.30;;;13.90;99.90;;;;;;5051521;28;20231;-83
2020/12/22 03:17:21;;;;;;;11.47;1.43;;;13.90;99.90;;;;;;5057951;28;20742;-83
2020/12/22 03:19:47;;;;;;;6.23;1.50;;;13.90;99.90;;;;;;5071331;28;20273;-83
2020/12/22 03:22:13;;;;;;;6.43;1.30;;;13.90;99.90;;;;;;5070831;28;20241;-83
2020/12/22 03:24:40;;;;;;;7.93;1.83;;;13.90;99.90;;;;;;5054500;28;20667;-83
2020/12/22 03:27:06;;;;;;;6.17;1.20;;;13.90;99.90;;;;;;5064990;28;20302;-83
2020/12/22 03:29:33;;;;;;;8.63;1.20;;;13.90;99.90;;;;;;5066890;28;20256;-83
2020/12/22 03:32:00;;;;;;;8.87;1.37;;;13.90;99.90;;;;;;5067626;28;20199;-83
2020/12/22 03:34:27;;;;;;;10.00;1.33;;;13.90;99.90;;;;;;5063364;28;20285;-83
2020/12/22 03:36:53;;;;;;;8.17;1.43;;;13.90;99.90;;;;;;5055432;28;20238;-83
2020/12/22 03:39:20;;;;;;;6.80;1.33;;;13.90;99.90;;;;;;5071262;28;20639;-83
2020/12/22 03:41:46;;;;;;;6.80;1.27;;;13.90;99.90;;;;;;5075146;28;20639;-84
2020/12/22 03:44:13;;;;;;;5.17;1.00;;;13.90;99.90;;;;;;5056419;28;20242;-83
2020/12/22 03:46:40;;;;;;;8.77;1.33;;;13.90;99.90;;;;;;5055102;28;20235;-84
2020/12/22 03:49:08;;;;;;;6.20;1.20;;;13.80;99.90;;;;;;5054979;28;20242;-84
2020/12/22 03:51:34;;;;;;;6.77;1.27;;;13.90;99.90;;;;;;5055135;28;20231;-83
2020/12/22 03:54:00;;;;;;;4.83;0.93;;;13.80;99.90;;;;;;5070227;28;20234;-84
2020/12/22 03:56:27;;;;;;;3.57;0.77;;;13.90;99.90;;;;;;5074560;28;20618;-84
2020/12/22 03:58:53;;;;;;;5.83;1.10;;;13.90;99.90;;;;;;5074194;28;20226;-84
2020/12/22 04:01:20;;;;;;;5.37;1.20;;;13.90;99.90;;;;;;5074690;28;20318;-84
2020/12/22 04:03:46;;;;;;;4.93;1.00;;;13.90;99.90;;;;;;5074807;28;20237;-84
2020/12/22 04:06:14;;;;;;;5.00;1.00;;;13.90;99.90;;;;;;5075157;28;20242;-84
2020/12/22 04:08:40;;;;;;;7.93;0.90;;;13.90;99.90;;;;;;5074142;28;20709;-84
2020/12/22 04:11:06;;;;;;;2.80;0.83;;;13.90;99.90;;;;;;5070577;28;20226;-83
2020/12/22 04:13:33;;;;;;;4.07;0.97;;;13.90;99.90;;;;;;5054568;28;20239;-84
2020/12/22 04:16:03;;;;;;;5.27;1.00;;;13.90;99.90;;;;;;5054393;28;20200;-84
2020/12/22 04:18:30;;;;;;;5.33;0.90;;;13.90;99.90;;;;;;5061736;28;20258;-84
2020/12/22 04:20:57;;;;;;;6.57;1.20;;;13.90;99.90;;;;;;5057840;28;20250;-83
2020/12/22 04:23:25;;;;;;;4.63;1.10;;;13.90;99.90;;;;;;5054552;28;20549;-83
2020/12/22 04:25:51;;;;;;;2.90;1.00;;;13.90;99.90;;;;;;5066217;28;20591;-83
2020/12/22 04:28:18;;;;;;;3.60;0.70;;;13.90;99.90;;;;;;5060107;28;20695;-82
2020/12/22 04:30:45;;;;;;;3.73;0.70;;;13.90;99.90;;;;;;5056715;28;20218;-82
2020/12/22 04:33:12;;;;;;;4.07;0.90;;;13.90;99.90;;;;;;5053541;28;20290;-83
2020/12/22 04:35:38;;;;;;;3.10;1.00;;;13.90;99.90;;;;;;5055647;28;20227;-83
2020/12/22 04:38:05;;;;;;;4.20;0.60;;;13.90;99.90;;;;;;5060239;28;20234;-83
2020/12/22 04:40:33;;;;;;;4.73;0.90;;;13.90;99.90;;;;;;5073542;28;20338;-82
2020/12/22 04:43:00;;;;;;;2.10;0.57;;;13.90;99.90;;;;;;5073429;28;20230;-83
2020/12/22 04:45:27;;;;;;;4.57;0.73;;;13.90;99.90;;;;;;5073434;28;20237;-83
2020/12/22 04:47:54;;;;;;;3.47;0.60;;;13.90;99.90;;;;;;5074068;28;20230;-83
2020/12/22 04:50:21;;;;;;;4.43;0.80;;;13.90;99.90;;;;;;5073524;28;20282;-83
2020/12/22 04:52:48;;;;;;;2.37;0.70;;;13.90;99.90;;;;;;5073592;28;20282;-83
2020/12/22 04:55:15;;;;;;;2.80;0.70;;;13.90;99.90;;;;;;5054314;28;20196;-83
2020/12/22 04:57:49;;;;;;;3.87;0.70;;;13.90;99.90;;;;;;5062214;28;20233;-83
2020/12/22 05:00:16;;;;;;;4.37;0.83;;;13.90;99.90;;;;;;5072912;28;20301;-83
2020/12/22 05:02:43;;;;;;;2.97;0.50;;;13.90;99.90;;;;;;5073419;28;20231;-83
2020/12/22 05:05:12;;;;;;;4.80;0.90;;;14.00;99.90;;;;;;5059168;28;20231;-83
2020/12/22 05:07:39;;;;;;;3.90;0.70;;;13.90;99.90;;;;;;5068407;28;20238;-83
2020/12/22 05:10:07;;;;;;;4.60;1.10;;;14.00;99.90;;;;;;5073742;28;20230;-83
2020/12/22 05:12:34;;;;;;;4.30;0.80;;;13.90;99.90;;;;;;5066160;28;20638;-83
2020/12/22 05:15:02;;;;;;;5.57;1.23;;;13.90;99.90;;;;;;5073204;28;20261;-84
2020/12/22 05:17:28;;;;;;;7.07;0.93;;;14.00;99.90;;;;;;5073141;28;20678;-84
2020/12/22 05:19:55;;;;;;;4.33;1.10;;;14.00;99.90;;;;;;5072507;28;20310;-83
2020/12/22 05:22:23;;;;;;;4.80;1.30;;;14.00;99.90;;;;;;5072417;28;20203;-84
2020/12/22 05:24:51;;;;;;;7.17;1.17;;;14.00;99.90;;;;;;5072990;28;20240;-83
2020/12/22 05:27:20;;;;;;;6.27;1.20;;;14.00;99.90;;;;;;5071843;28;20580;-84
2020/12/22 05:29:47;;;;;;;6.10;1.20;;;14.00;99.90;;;;;;5072390;28;20244;-83
2020/12/22 05:32:17;;;;;;;9.27;1.30;;;14.00;99.90;;;;;;5065148;28;20238;-84
2020/12/22 05:34:46;;;;;;;10.80;1.40;;;14.00;99.90;;;;;;5072112;28;20206;-83
2020/12/22 05:37:14;;;;;;;6.97;1.50;;;14.00;99.90;;;;;;5072562;28;20659;-84
2020/12/22 05:39:40;;;;;;;6.43;1.30;;;14.00;99.90;;;;;;5071261;28;20313;-84
2020/12/22 05:42:13;;;;;;;5.37;1.63;;;14.00;99.90;;;;;;5073009;28;20235;-84
2020/12/22 05:44:47;;;;;;;8.00;1.60;;;14.00;99.90;;;;;;5072481;28;20227;-83
2020/12/22 05:47:16;;;;;;;5.73;1.50;;;14.00;99.90;;;;;;5054246;28;20633;-83
2020/12/22 05:49:53;;;;;;;7.03;1.37;;;14.00;99.90;;;;;;5072135;28;20206;-83
2020/12/22 05:52:24;;;;;;;7.77;1.57;;;14.00;99.90;;;;;;5072577;28;20237;-84
2020/12/22 05:54:52;;;;;;;7.33;1.17;;;14.00;99.90;;;;;;5072580;28;20277;-84
2020/12/22 05:57:22;;;;;;;5.53;1.00;;;14.10;99.90;;;;;;5072692;28;20199;-82
2020/12/22 05:59:49;;;;;;;3.03;0.83;;;14.10;99.90;;;;;;5058431;28;20231;-82
2020/12/22 06:02:27;;;;;;;4.97;1.00;;;14.10;99.90;;;;;;5071573;28;20206;-83
2020/12/22 06:04:56;;;;;;;5.80;1.23;;;14.10;99.90;;;;;;5064340;28;20234;-82
2020/12/22 06:07:23;;;;;;;4.10;1.10;;;14.10;99.90;;;;;;5071554;28;20241;-83
2020/12/22 06:09:50;;;;;;;4.03;1.20;;;14.10;99.90;;;;;;5071042;28;20227;-84
2020/12/22 06:12:18;;;;;;;5.77;1.07;;;14.10;99.90;;;;;;5058287;28;20695;-81
2020/12/22 06:14:48;;;;;;;4.40;1.07;;;14.10;99.90;;;;;;5060848;28;20234;-82
2020/12/22 06:17:14;;;;;;;4.97;1.30;;;14.10;99.90;;;;;;5065161;28;20735;-82
2020/12/22 06:19:42;;;;;;;6.17;1.27;;;14.10;99.90;;;;;;5060167;28;20246;-82
2020/12/22 06:22:11;;;;;;;3.03;1.00;;;14.10;99.90;;;;;;5071381;28;20284;-82
2020/12/22 06:24:39;;;;;;;4.37;1.17;;;14.10;99.90;;;;;;5055692;28;20231;-84
2020/12/22 06:27:07;;;;;;;5.37;1.10;;;14.20;99.90;;;;;;5060763;28;20297;-82
2020/12/22 06:29:35;;;;;;;3.53;1.17;;;14.10;99.90;;;;;;5057481;28;20255;-82
2020/12/22 06:32:23;;;;;;;3.70;1.17;;;14.20;99.90;;;;;;5057288;28;20234;-82
2020/12/22 06:34:50;;;;;;;3.93;1.00;;;14.20;99.90;;;;;;5061463;28;20678;-82
2020/12/22 06:37:21;;;;;;;4.47;1.10;;;14.20;99.90;;;;;;5072150;28;20234;-83
2020/12/22 06:39:48;;;;;;;3.33;1.10;;;14.20;99.90;;;;;;5067442;28;20665;-82
2020/12/22 06:42:42;;;;;;;4.53;1.00;;;14.20;99.90;;;;;;5052135;28;20239;-85
2020/12/22 06:45:31;;;;;;;4.97;1.10;;;14.20;99.90;;;;;;5064989;28;20203;-85
2020/12/22 06:47:59;;;;;;;3.00;0.90;;;14.20;99.90;;;;;;5065858;28;20238;-85
2020/12/22 06:50:39;;;;;;;3.97;1.23;;;14.20;99.90;;;;;;5071472;28;20273;-81
2020/12/22 06:53:27;;;;;;;3.70;0.90;;;14.20;99.90;;;;;;5071491;28;20205;-81
2020/12/22 06:55:54;;;;;;;2.40;1.07;;;14.20;99.90;;;;;;5072084;28;20231;-81
2020/12/22 06:58:37;;;;;;;2.37;0.87;;;14.20;99.90;;;;;;5071584;28;20666;-82
2020/12/22 07:01:29;;;;;;;2.00;0.93;;;14.20;99.90;;;;;;5074668;28;20306;-82
2020/12/22 07:04:15;;;;;;;3.67;1.20;;;14.20;99.90;;;;;;5075725;28;20574;-82
2020/12/22 07:06:59;;;;;;;2.97;1.00;;;14.20;99.90;;;;;;5075062;28;20727;-82
2020/12/22 07:09:29;;;;;;;5.10;1.40;;;14.20;99.90;;;;;;5075688;28;20256;-82
2020/12/22 07:12:11;;;;;;;5.13;1.30;;;14.20;99.90;;;;;;5071893;28;20234;-82
2020/12/22 07:14:39;;;;;;;2.87;1.20;;;14.20;99.90;;;;;;5057062;28;20201;-81
2020/12/22 07:17:07;;;;;;;3.27;1.50;;;14.20;99.90;;;;;;5073149;28;20191;-82
2020/12/22 07:19:35;;;;;;;5.40;1.47;;;14.20;99.90;;;;;;5067783;28;20330;-81
2020/12/22 07:22:03;;;;;;;3.87;1.70;;;14.20;99.90;;;;;;5070205;28;20748;-81
2020/12/22 07:24:30;;;;;;;5.40;1.90;;;14.20;99.90;;;;;;5073045;28;20229;-81
2020/12/22 07:26:58;;;;;;;6.13;2.10;;;14.20;99.90;;;;;;5071509;28;20353;-82
2020/12/22 07:29:25;;;;;;;8.00;3.13;;;14.20;99.90;;;;;;5073612;28;20710;-81
2020/12/22 07:31:52;;;;;;;5.70;2.47;;;14.20;99.90;;;;;;5074059;28;20754;-81
2020/12/22 07:34:19;;;;;;;2.97;1.80;;;14.20;99.90;;;;;;5072076;28;20623;-81
2020/12/22 07:36:46;;;;;;;5.43;1.97;;;14.20;99.90;;;;;;5060002;28;20196;-81
2020/12/22 07:39:18;;;;;;;5.77;1.93;;;14.20;99.90;;;;;;5073902;28;20199;-82
2020/12/22 07:41:45;;;;;;;4.70;1.67;;;14.30;99.90;;;;;;5074292;28;20281;-81
2020/12/22 07:44:13;;;;;;;5.77;1.70;;;14.20;99.90;;;;;;5071823;28;20246;-81
2020/12/22 07:46:41;;;;;;;4.00;1.30;;;14.20;99.90;;;;;;5071830;28;20191;-81
2020/12/22 07:49:09;;;;;;;2.93;1.13;;;14.20;99.90;;;;;;5062446;28;20636;-81
2020/12/22 07:51:36;;;;;;;4.30;1.70;;;14.20;99.90;;;;;;5068926;28;20231;-81
2020/12/22 07:54:04;;;;;;;5.03;1.40;;;14.20;99.90;;;;;;5074445;28;20295;-81
2020/12/22 07:56:31;;;;;;;2.90;1.50;;;14.20;99.90;;;;;;5073056;28;20286;-80
2020/12/22 07:59:01;;;;;;;3.70;1.67;;;14.20;99.90;;;;;;5073640;28;20225;-81
2020/12/22 08:01:30;;;;;;;7.00;1.60;;;14.20;99.90;;;;;;5056347;28;20695;-81
2020/12/22 08:03:57;;;;;;;6.37;2.10;;;14.20;99.90;;;;;;5073683;28;20199;-82
2020/12/22 08:06:23;;;;;;;6.10;1.83;;;14.20;99.90;;;;;;5072897;28;20629;-81
2020/12/22 08:09:00;;;;;;;6.07;2.10;;;14.30;99.90;;;;;;5069962;28;20235;-81
2020/12/22 08:11:27;;;;;;;6.50;2.50;;;14.30;99.90;;;;;;5058201;28;20235;-81
2020/12/22 08:13:54;;;;;;;5.57;1.87;;;14.30;99.90;;;;;;5061791;28;20872;-82
2020/12/22 08:16:20;;;;;;;5.80;1.77;;;14.30;99.90;;;;;;5062727;28;20659;-82
2020/12/22 08:18:49;;;;;;;5.03;1.57;;;14.30;99.90;;;;;;5072709;28;20199;-82
2020/12/22 08:21:18;;;;;;;7.40;1.80;;;14.30;99.90;;;;;;5073032;28;20219;-81
2020/12/22 08:23:46;;;;;;;3.17;1.27;;;14.30;99.90;;;;;;5066258;28;20647;-82
2020/12/22 08:26:17;;;;;;;4.57;1.70;;;14.40;99.90;;;;;;5067623;28;20264;-82
2020/12/22 08:28:52;;;;;;;3.47;1.40;;;14.40;99.90;;;;;;5064192;28;20234;-83
2020/12/22 08:31:23;;;;;;;5.20;1.77;;;14.40;99.90;;;;;;5071780;28;20208;-83
2020/12/22 08:33:53;;;;;;;5.37;1.60;;;14.40;99.90;;;;;;5057674;28;20196;-83
2020/12/22 08:36:20;;;;;;;5.07;1.47;;;14.40;99.90;;;;;;5068302;28;20703;-82
2020/12/22 08:38:47;;;;;;;5.50;1.20;;;14.40;99.90;;;;;;5072979;28;20207;-82
2020/12/22 08:41:16;;;;;;;3.40;0.93;;;14.40;99.90;;;;;;5067333;28;20647;-82
2020/12/22 08:43:51;;;;;;;5.97;1.27;;;14.40;99.90;;;;;;5063342;28;20203;-82
2020/12/22 08:46:19;;;;;;;3.33;1.20;;;14.40;99.90;;;;;;5073200;28;20628;-82
2020/12/22 08:48:46;;;;;;;4.40;1.20;;;14.40;99.90;;;;;;5073245;28;20622;-82
2020/12/22 08:51:24;;;;;;;4.93;1.37;;;14.40;99.90;;;;;;5068674;28;20893;-82
2020/12/22 08:53:53;;;;;;;3.97;1.40;;;14.40;99.90;;;;;;5058659;28;20235;-82
2020/12/22 08:56:23;;;;;;;4.03;1.70;;;14.40;99.90;;;;;;5065214;28;20199;-82
2020/12/22 08:58:54;;;;;;;6.40;1.60;;;14.50;99.90;;;;;;5068485;28;20234;-84
2020/12/22 09:01:25;;;;;;;5.27;2.00;;;14.40;99.90;;;;;;5071079;28;20248;-83
2020/12/22 09:03:54;;;;;;;6.33;2.20;;;14.50;99.90;;;;;;5066467;28;20296;-83
2020/12/22 09:06:37;;;;;;;5.77;1.93;;;14.50;99.90;;;;;;5066042;28;20233;-83
2020/12/22 09:09:05;;;;;;;6.00;2.70;;;14.50;99.90;;;;;;5065795;28;20241;-83
2020/12/22 09:11:31;;;;;;;8.80;2.30;;;14.50;99.90;;;;;;5070125;28;20281;-83
2020/12/22 09:14:04;;;;;;;8.90;2.10;;;14.50;99.90;;;;;;5059606;28;20233;-83
2020/12/22 09:16:53;;;;;;;4.53;2.00;;;14.50;99.90;;;;;;5070376;28;20241;-83
2020/12/22 09:19:28;;;;;;;6.23;2.40;;;14.50;99.90;;;;;;5069572;28;20199;-82
2020/12/22 09:22:00;;;;;;;3.83;2.13;;;14.50;99.90;;;;;;5066490;28;20268;-83
2020/12/22 09:24:27;;;;;;;5.57;1.50;;;14.50;99.90;;;;;;5069235;28;20643;-83
2020/12/22 09:27:02;;;;;;;1.20;0.80;;;14.50;99.90;;;;;;5063318;28;20773;-83
2020/12/22 09:29:28;;;;;;;2.70;1.27;;;14.50;99.90;;;;;;5062036;28;20267;-83
2020/12/22 09:31:56;;;;;;;1.70;1.00;;;14.50;99.90;;;;;;5072664;28;20320;-83
2020/12/22 09:34:23;;;;;;;3.23;1.20;;;14.50;99.90;;;;;;5072442;28;20235;-84
2020/12/22 09:36:51;;;;;;;2.40;0.87;;;14.60;99.90;;;;;;5071709;28;20202;-83
2020/12/22 09:39:19;;;;;;;1.20;0.60;;;14.60;99.90;;;;;;5070645;28;20710;-82
2020/12/22 09:41:46;;;;;;;1.30;0.80;;;14.60;99.90;;;;;;5068660;28;20624;-83
2020/12/22 09:44:12;;;;;;;2.90;0.70;;;14.60;99.90;;;;;;5061629;28;20227;-82
2020/12/22 09:46:39;;;;;;;1.10;0.70;;;14.60;99.90;;;;;;5061658;28;20584;-82
2020/12/22 09:49:05;;;;;;;2.83;0.90;;;14.60;99.90;;;;;;5070897;28;20260;-83
2020/12/22 09:51:33;;;;;;;2.50;0.70;;;14.60;99.90;;;;;;5065679;28;20321;-83
2020/12/22 09:53:59;;;;;;;2.73;0.77;;;14.60;99.90;;;;;;5061777;28;20261;-83
2020/12/22 09:56:26;;;;;;;2.27;0.80;;;14.60;99.90;;;;;;5070534;28;20238;-82
2020/12/22 09:58:53;;;;;;;1.27;0.60;;;14.60;99.90;;;;;;5071277;28;20282;-82
2020/12/22 10:01:23;;;;;;;1.53;0.70;;;14.60;99.90;;;;;;5071384;28;20310;-82
2020/12/22 10:03:50;;;;;;;2.50;0.70;;;14.60;99.90;;;;;;5065380;28;20238;-83
2020/12/22 10:06:21;;;;;;;2.67;1.30;;;14.60;99.90;;;;;;5065000;28;20310;-81
2020/12/22 10:08:49;;;;;;;1.80;1.10;;;14.60;99.90;;;;;;5062925;28;20238;-81
2020/12/22 10:11:16;;;;;;;4.33;2.13;;;14.60;99.90;;;;;;5065283;28;20227;-81
2020/12/22 10:13:44;;;;;;;6.63;4.80;;;14.70;99.90;;;;;;5060204;28;20293;-81
2020/12/22 10:16:13;;;;;;;6.50;4.00;;;14.70;99.90;;;;;;5063842;28;20234;-82
2020/12/22 10:18:39;;;;;;;1.87;1.47;;;14.70;99.90;;;;;;5057562;28;20207;-81
2020/12/22 10:21:08;;;;;;;3.73;1.20;;;14.70;99.90;;;;;;5071298;28;20711;-81
2020/12/22 10:23:35;;;;;;;1.10;0.70;;;14.70;99.90;;;;;;5067375;28;20256;-81
2020/12/22 10:26:05;;;;;;;1.00;0.90;;;14.70;99.90;;;;;;5064479;28;20253;-81
2020/12/22 10:28:32;;;;;;;2.03;1.00;;;14.70;99.90;;;;;;5065519;28;20314;-83
2020/12/22 10:31:00;;;;;;;2.97;1.10;;;14.70;99.90;;;;;;5062682;28;20638;-82
2020/12/22 10:33:26;;;;;;;2.43;1.30;;;14.70;99.90;;;;;;5070904;28;20702;-82
2020/12/22 10:35:53;;;;;;;2.20;0.97;;;14.70;99.90;;;;;;5064185;28;20230;-82
2020/12/22 10:38:20;;;;;;;1.43;1.00;;;14.70;99.90;;;;;;5072506;28;20206;-82
2020/12/22 10:40:47;;;;;;;1.70;1.00;;;14.80;99.90;;;;;;5072694;28;20250;-82
2020/12/22 10:43:14;;;;;;;2.50;1.60;;;14.80;99.90;;;;;;5069157;28;20278;-80
2020/12/22 10:45:41;;;;;;;2.77;1.40;;;14.80;99.90;;;;;;5057702;28;20242;-81
2020/12/22 10:48:09;;;;;;;1.40;1.00;;;14.80;99.90;;;;;;5061375;28;20199;-82
2020/12/22 10:50:36;;;;;;;1.50;1.20;;;14.80;99.90;;;;;;5061060;28;20238;-82
2020/12/22 10:53:04;;;;;;;4.00;1.20;;;14.80;99.90;;;;;;5051713;28;20243;-81
2020/12/22 10:55:31;;;;;;;1.53;1.20;;;14.80;99.90;;;;;;5069355;28;20282;-82
2020/12/22 10:57:57;;;;;;;2.83;1.27;;;14.80;99.90;;;;;;5055969;28;20744;-82
2020/12/22 11:00:25;;;;;;;3.17;1.93;;;14.80;99.90;;;;;;5059960;28;20302;-82
2020/12/22 11:02:53;;;;;;;3.10;2.70;;;14.80;99.90;;;;;;5065939;28;20241;-82
2020/12/22 11:08:04;;;;;;;1.87;1.50;;;14.80;99.90;;;;;;5066051;28;20755;-81
2020/12/22 11:10:31;;;;;;;1.50;0.90;;;14.80;99.90;;;;;;5059469;28;20226;-81
2020/12/22 11:12:57;;;;;;;2.03;0.80;;;14.80;99.90;;;;;;5060590;28;20199;-81
2020/12/22 11:15:24;;;;;;;1.63;0.67;;;14.80;99.90;;;;;;5066296;28;20293;-81
2020/12/22 11:17:50;;;;;;;2.53;0.90;;;14.80;99.90;;;;;;5068045;28;20382;-81
2020/12/22 11:20:16;;;;;;;3.47;1.33;;;14.90;99.90;;;;;;5056286;28;20342;-82
2020/12/22 11:22:44;;;;;;;2.17;1.20;;;14.80;99.90;;;;;;5067747;28;20234;-81
2020/12/22 11:25:10;;;;;;;5.83;1.33;;;14.90;99.90;;;;;;5064384;28;20294;-82
2020/12/22 11:27:36;;;;;;;5.40;1.40;;;14.90;99.90;;;;;;5066399;28;20750;-82
2020/12/22 11:30:04;;;;;;;6.83;1.67;;;15.00;99.90;;;;;;5061658;28;20259;-82
2020/12/22 11:32:30;;;;;;;6.70;2.47;;;15.00;99.90;;;;;;5070068;28;20317;-82
2020/12/22 11:34:56;;;;;;;5.43;1.60;;;15.00;99.90;;;;;;5068541;28;20284;-82
2020/12/22 11:37:25;;;;;;;9.07;1.60;;;15.00;99.90;;;;;;5067138;28;20329;-82
2020/12/22 11:39:52;;;;;;;7.67;1.93;;;15.00;99.90;;;;;;5053222;28;20219;-82
2020/12/22 11:42:19;;;;;;;7.07;1.73;;;15.00;99.90;;;;;;5069864;28;20242;-82
2020/12/22 11:44:45;;;;;;;9.53;1.63;;;15.10;99.90;;;;;;5067607;28;20675;-82
2020/12/22 11:47:12;;;;;;;12.00;1.57;;;15.20;99.90;;;;;;5062940;28;20734;-82
2020/12/22 11:49:39;;;;;;;6.03;1.77;;;15.20;99.90;;;;;;5074093;28;20230;-85
2020/12/22 11:52:05;;;;;;;9.97;1.40;;;15.10;99.90;;;;;;5069184;28;20231;-81
2020/12/22 11:54:32;;;;;;;7.80;2.10;;;15.10;99.90;;;;;;5067871;28;20199;-81
2020/12/22 11:56:59;;;;;;;12.20;2.20;;;15.10;99.90;;;;;;5074206;28;20234;-82
2020/12/22 11:59:26;;;;;;;8.37;2.07;;;15.10;99.90;;;;;;5072061;28;20226;-83
2020/12/22 12:01:52;;;;;;;15.87;2.57;;;15.20;99.90;;;;;;5073346;28;21646;-82
2020/12/22 12:04:18;;;;;;;10.97;2.30;;;15.20;99.90;;;;;;5064474;28;20285;-82
2020/12/22 12:06:46;;;;;;;11.47;2.97;;;15.20;99.90;;;;;;5059363;28;20234;-83
2020/12/22 12:09:12;;;;;;;11.90;2.80;;;15.40;99.90;;;;;;5074043;28;20232;-83
2020/12/22 12:11:47;;;;;;;12.80;3.10;;;15.40;99.90;;;;;;5073549;28;20241;-82
2020/12/22 12:14:15;;;;;;;12.43;2.90;;;15.30;99.90;;;;;;5069044;28;20221;-83
2020/12/22 12:16:45;;;;;;;7.70;2.30;;;15.30;99.90;;;;;;5064242;28;20252;-82
2020/12/22 12:19:11;;;;;;;9.80;2.70;;;15.30;99.90;;;;;;5058780;28;20296;-83
2020/12/22 12:21:37;;;;;;;10.10;2.20;;;15.20;99.90;;;;;;5067890;28;20348;-82
2020/12/22 12:24:04;;;;;;;11.13;2.10;;;15.30;99.90;;;;;;5067638;28;20234;-82
2020/12/22 12:26:30;;;;;;;7.97;1.87;;;15.30;99.90;;;;;;5072510;28;20754;-82
2020/12/22 12:28:57;;;;;;;9.90;2.40;;;15.30;99.90;;;;;;5062728;28;20306;-82
2020/12/22 12:31:26;;;;;;;7.13;2.23;;;15.40;99.90;;;;;;5065167;28;20244;-82
2020/12/22 12:33:53;;;;;;;11.70;3.00;;;15.40;99.90;;;;;;5056845;28;20687;-83
2020/12/22 12:36:19;;;;;;;12.07;2.13;;;15.50;99.90;;;;;;5073377;28;20238;-83
2020/12/22 12:38:46;;;;;;;11.07;2.63;;;15.60;99.90;;;;;;5066491;28;20234;-83
2020/12/22 12:41:13;;;;;;;11.33;2.73;;;15.60;99.90;;;;;;5069807;28;20534;-82
2020/12/22 12:43:39;;;;;;;8.47;1.80;;;15.70;99.90;;;;;;5070493;28;20230;-82
2020/12/22 12:46:06;;;;;;;8.43;2.40;;;15.80;99.90;;;;;;5070824;28;20282;-82
2020/12/22 12:48:34;;;;;;;9.97;2.53;;;15.90;99.90;;;;;;5065010;28;20210;-83
2020/12/22 12:51:00;;;;;;;10.60;2.87;;;15.90;99.90;;;;;;5068209;28;20237;-83
2020/12/22 12:53:27;;;;;;;5.73;2.00;;;16.00;99.90;;;;;;5067249;28;20609;-83